sensor_id;sensor_type;location;lat;lon;timestamp;temperature;humidity
18998;DHT22;9632;51.018;4.284;2023-04-15T00:01:24;12.50;99.90
18998;DHT22;9632;51.018;4.284;2023-04-15T00:03:51;12.50;99.90
18998;DHT22;9632;51.018;4.284;2023-04-15T00:06:22;12.50;99.90
18998;DHT22;9632;51.018;4.284;2023-04-15T00:08:48;12.50;99.90
18998;DHT22;9632;51.018;4.284;2023-04-15T00:11:15;12.50;99.90
18998;DHT22;9632;51.018;4.284;2023-04-15T00:13:41;12.40;99.90
18998;DHT22;9632;51.018;4.284;2023-04-15T00:16:08;12.40;99.90
18998;DHT22;9632;51.018;4.284;2023-04-15T00:18:34;12.40;99.90
18998;DHT22;9632;51.018;4.284;2023-04-15T00:21:00;12.50;99.90
18998;DHT22;9632;51.018;4.284;2023-04-15T00:23:27;12.40;99.90
18998;DHT22;9632;51.018;4.284;2023-04-15T00:25:52;12.40;99.90
18998;DHT22;9632;51.018;4.284;2023-04-15T00:28:18;12.40;99.90
18998;DHT22;9632;51.018;4.284;2023-04-15T00:30:44;12.40;99.90
18998;DHT22;9632;51.018;4.284;2023-04-15T00:33:11;12.40;99.90
18998;DHT22;9632;51.018;4.284;2023-04-15T00:35:37;12.40;99.90
18998;DHT22;9632;51.018;4.284;2023-04-15T00:38:03;12.40;99.90
18998;DHT22;9632;51.018;4.284;2023-04-15T00:40:29;12.30;99.90
18998;DHT22;9632;51.018;4.284;2023-04-15T00:42:55;12.30;99.90
18998;DHT22;9632;51.018;4.284;2023-04-15T00:45:21;12.40;99.90
18998;DHT22;9632;51.018;4.284;2023-04-15T00:47:46;12.40;99.90
18998;DHT22;9632;51.018;4.284;2023-04-15T00:50:12;12.40;99.90
18998;DHT22;9632;51.018;4.284;2023-04-15T00:52:39;12.40;99.90
18998;DHT22;9632;51.018;4.284;2023-04-15T00:55:05;12.30;99.90
18998;DHT22;9632;51.018;4.284;2023-04-15T00:57:31;12.30;99.90
18998;DHT22;9632;51.018;4.284;2023-04-15T00:59:57;12.30;99.90
18998;DHT22;9632;51.018;4.284;2023-04-15T01:02:23;12.30;99.90
18998;DHT22;9632;51.018;4.284;2023-04-15T01:04:49;12.30;99.90
18998;DHT22;9632;51.018;4.284;2023-04-15T01:07:15;12.30;99.90
18998;DHT22;9632;51.018;4.284;2023-04-15T01:09:41;12.30;99.90
18998;DHT22;9632;51.018;4.284;2023-04-15T01:12:09;12.30;99.90
18998;DHT22;9632;51.018;4.284;2023-04-15T01:14:36;12.30;99.90
18998;DHT22;9632;51.018;4.284;2023-04-15T01:17:01;12.30;99.90
18998;DHT22;9632;51.018;4.284;2023-04-15T01:19:27;12.30;99.90
18998;DHT22;9632;51.018;4.284;2023-04-15T01:21:53;12.30;99.90
18998;DHT22;9632;51.018;4.284;2023-04-15T01:24:19;12.30;99.90
18998;DHT22;9632;51.018;4.284;2023-04-15T01:26:45;12.20;99.90
18998;DHT22;9632;51.018;4.284;2023-04-15T01:29:11;12.20;99.90
18998;DHT22;9632;51.018;4.284;2023-04-15T01:31:37;12.20;99.90
18998;DHT22;9632;51.018;4.284;2023-04-15T01:34:03;12.20;99.90
18998;DHT22;9632;51.018;4.284;2023-04-15T01:36:29;12.20;99.90
18998;DHT22;9632;51.018;4.284;2023-04-15T01:38:55;12.20;99.90
18998;DHT22;9632;51.018;4.284;2023-04-15T01:41:26;12.20;99.90
18998;DHT22;9632;51.018;4.284;2023-04-15T01:43:52;12.20;99.90
18998;DHT22;9632;51.018;4.284;2023-04-15T01:46:18;12.20;99.90
18998;DHT22;9632;51.018;4.284;2023-04-15T01:48:44;12.20;99.90
18998;DHT22;9632;51.018;4.284;2023-04-15T01:51:09;12.20;99.90
18998;DHT22;9632;51.018;4.284;2023-04-15T01:53:35;12.20;99.90
18998;DHT22;9632;51.018;4.284;2023-04-15T01:56:01;12.20;99.90
18998;DHT22;9632;51.018;4.284;2023-04-15T01:58:27;12.20;99.90
18998;DHT22;9632;51.018;4.284;2023-04-15T02:00:53;12.20;99.90
18998;DHT22;9632;51.018;4.284;2023-04-15T02:03:18;12.10;99.90
18998;DHT22;9632;51.018;4.284;2023-04-15T02:05:44;12.10;99.90
18998;DHT22;9632;51.018;4.284;2023-04-15T02:08:10;12.10;99.90
18998;DHT22;9632;51.018;4.284;2023-04-15T02:10:36;12.10;99.90
18998;DHT22;9632;51.018;4.284;2023-04-15T02:13:02;12.10;99.90
18998;DHT22;9632;51.018;4.284;2023-04-15T02:15:27;12.10;99.90
18998;DHT22;9632;51.018;4.284;2023-04-15T02:17:53;12.10;99.90
18998;DHT22;9632;51.018;4.284;2023-04-15T02:20:20;12.10;99.90
18998;DHT22;9632;51.018;4.284;2023-04-15T02:22:46;12.10;99.90
18998;DHT22;9632;51.018;4.284;2023-04-15T02:25:13;12.10;99.90
18998;DHT22;9632;51.018;4.284;2023-04-15T02:27:38;12.10;99.90
18998;DHT22;9632;51.018;4.284;2023-04-15T02:30:05;12.00;99.90
18998;DHT22;9632;51.018;4.284;2023-04-15T02:32:32;12.10;99.90
18998;DHT22;9632;51.018;4.284;2023-04-15T02:35:04;12.10;99.90
18998;DHT22;9632;51.018;4.284;2023-04-15T02:37:31;12.10;99.90
18998;DHT22;9632;51.018;4.284;2023-04-15T02:40:00;12.10;99.90
18998;DHT22;9632;51.018;4.284;2023-04-15T02:42:26;12.10;99.90
18998;DHT22;9632;51.018;4.284;2023-04-15T02:44:53;12.10;99.90
18998;DHT22;9632;51.018;4.284;2023-04-15T02:47:19;12.10;99.90
18998;DHT22;9632;51.018;4.284;2023-04-15T02:49:45;12.10;99.90
18998;DHT22;9632;51.018;4.284;2023-04-15T02:52:11;12.10;99.90
18998;DHT22;9632;51.018;4.284;2023-04-15T02:54:36;12.00;99.90
18998;DHT22;9632;51.018;4.284;2023-04-15T02:57:02;12.00;99.90
18998;DHT22;9632;51.018;4.284;2023-04-15T02:59:30;12.00;99.90
18998;DHT22;9632;51.018;4.284;2023-04-15T03:01:56;12.00;99.90
18998;DHT22;9632;51.018;4.284;2023-04-15T03:04:25;11.90;99.90
18998;DHT22;9632;51.018;4.284;2023-04-15T03:06:51;11.90;99.90
18998;DHT22;9632;51.018;4.284;2023-04-15T03:09:16;11.90;99.90
18998;DHT22;9632;51.018;4.284;2023-04-15T03:11:42;11.90;99.90
18998;DHT22;9632;51.018;4.284;2023-04-15T03:14:08;12.00;99.90
18998;DHT22;9632;51.018;4.284;2023-04-15T03:16:33;12.00;99.90
18998;DHT22;9632;51.018;4.284;2023-04-15T03:18:59;11.90;99.90
18998;DHT22;9632;51.018;4.284;2023-04-15T03:21:25;11.90;99.90
18998;DHT22;9632;51.018;4.284;2023-04-15T03:23:51;11.90;99.90
18998;DHT22;9632;51.018;4.284;2023-04-15T03:26:25;11.90;99.90
18998;DHT22;9632;51.018;4.284;2023-04-15T03:28:51;11.90;99.90
18998;DHT22;9632;51.018;4.284;2023-04-15T03:31:17;12.00;99.90
18998;DHT22;9632;51.018;4.284;2023-04-15T03:33:42;11.90;99.90
18998;DHT22;9632;51.018;4.284;2023-04-15T03:36:08;11.90;99.90
18998;DHT22;9632;51.018;4.284;2023-04-15T03:38:33;11.90;99.90
18998;DHT22;9632;51.018;4.284;2023-04-15T03:40:59;11.90;99.90
18998;DHT22;9632;51.018;4.284;2023-04-15T03:43:25;11.90;99.90
18998;DHT22;9632;51.018;4.284;2023-04-15T03:45:51;11.90;99.90
18998;DHT22;9632;51.018;4.284;2023-04-15T03:48:17;11.90;99.90
18998;DHT22;9632;51.018;4.284;2023-04-15T03:50:42;11.90;99.90
18998;DHT22;9632;51.018;4.284;2023-04-15T03:53:08;11.80;99.90
18998;DHT22;9632;51.018;4.284;2023-04-15T03:55:34;11.80;99.90
18998;DHT22;9632;51.018;4.284;2023-04-15T03:57:59;11.80;99.90
18998;DHT22;9632;51.018;4.284;2023-04-15T04:00:26;11.80;99.90
18998;DHT22;9632;51.018;4.284;2023-04-15T04:02:51;11.80;99.90
18998;DHT22;9632;51.018;4.284;2023-04-15T04:05:17;11.80;99.90
18998;DHT22;9632;51.018;4.284;2023-04-15T04:07:43;11.80;99.90
18998;DHT22;9632;51.018;4.284;2023-04-15T04:10:08;11.80;99.90
18998;DHT22;9632;51.018;4.284;2023-04-15T04:12:34;11.70;99.90
18998;DHT22;9632;51.018;4.284;2023-04-15T04:15:00;11.70;99.90
18998;DHT22;9632;51.018;4.284;2023-04-15T04:17:26;11.70;99.90
18998;DHT22;9632;51.018;4.284;2023-04-15T04:19:51;11.70;99.90
18998;DHT22;9632;51.018;4.284;2023-04-15T04:22:17;11.70;99.90
18998;DHT22;9632;51.018;4.284;2023-04-15T04:24:46;11.70;99.90
18998;DHT22;9632;51.018;4.284;2023-04-15T04:27:12;11.60;99.90
18998;DHT22;9632;51.018;4.284;2023-04-15T04:29:37;11.70;99.90
18998;DHT22;9632;51.018;4.284;2023-04-15T04:32:03;11.60;99.90
18998;DHT22;9632;51.018;4.284;2023-04-15T04:34:29;11.60;99.90
18998;DHT22;9632;51.018;4.284;2023-04-15T04:36:54;11.60;99.90
18998;DHT22;9632;51.018;4.284;2023-04-15T04:39:20;11.60;99.90
18998;DHT22;9632;51.018;4.284;2023-04-15T04:41:45;11.60;99.90
18998;DHT22;9632;51.018;4.284;2023-04-15T04:44:11;11.60;99.90
18998;DHT22;9632;51.018;4.284;2023-04-15T04:46:37;11.60;99.90
18998;DHT22;9632;51.018;4.284;2023-04-15T04:49:02;11.60;99.90
18998;DHT22;9632;51.018;4.284;2023-04-15T04:51:28;11.60;99.90
18998;DHT22;9632;51.018;4.284;2023-04-15T04:53:54;11.50;99.90
18998;DHT22;9632;51.018;4.284;2023-04-15T04:56:19;11.50;99.90
18998;DHT22;9632;51.018;4.284;2023-04-15T04:58:45;11.50;99.90
18998;DHT22;9632;51.018;4.284;2023-04-15T05:01:11;11.40;99.90
18998;DHT22;9632;51.018;4.284;2023-04-15T05:03:37;11.40;99.90
18998;DHT22;9632;51.018;4.284;2023-04-15T05:06:03;11.40;99.90
18998;DHT22;9632;51.018;4.284;2023-04-15T05:08:30;11.50;99.90
18998;DHT22;9632;51.018;4.284;2023-04-15T05:10:56;11.40;99.90
18998;DHT22;9632;51.018;4.284;2023-04-15T05:13:22;11.50;99.90
18998;DHT22;9632;51.018;4.284;2023-04-15T05:15:48;11.50;99.90
18998;DHT22;9632;51.018;4.284;2023-04-15T05:18:13;11.50;99.90
18998;DHT22;9632;51.018;4.284;2023-04-15T05:20:39;11.50;99.90
18998;DHT22;9632;51.018;4.284;2023-04-15T05:23:05;11.50;99.90
18998;DHT22;9632;51.018;4.284;2023-04-15T05:25:31;11.50;99.90
18998;DHT22;9632;51.018;4.284;2023-04-15T05:27:56;11.50;99.90
18998;DHT22;9632;51.018;4.284;2023-04-15T05:30:22;11.60;99.90
18998;DHT22;9632;51.018;4.284;2023-04-15T05:32:48;11.60;99.90
18998;DHT22;9632;51.018;4.284;2023-04-15T05:35:14;11.60;99.90
18998;DHT22;9632;51.018;4.284;2023-04-15T05:37:39;11.60;99.90
18998;DHT22;9632;51.018;4.284;2023-04-15T05:40:06;11.50;99.90
18998;DHT22;9632;51.018;4.284;2023-04-15T05:42:32;11.60;99.90
18998;DHT22;9632;51.018;4.284;2023-04-15T05:44:57;11.60;99.90
18998;DHT22;9632;51.018;4.284;2023-04-15T05:47:23;11.60;99.90
18998;DHT22;9632;51.018;4.284;2023-04-15T05:49:49;11.60;99.90
18998;DHT22;9632;51.018;4.284;2023-04-15T05:52:14;11.70;99.90
18998;DHT22;9632;51.018;4.284;2023-04-15T05:54:41;11.60;99.90
18998;DHT22;9632;51.018;4.284;2023-04-15T05:57:06;11.70;99.90
18998;DHT22;9632;51.018;4.284;2023-04-15T05:59:32;11.70;99.90
18998;DHT22;9632;51.018;4.284;2023-04-15T06:01:58;11.70;99.90
18998;DHT22;9632;51.018;4.284;2023-04-15T06:04:23;11.70;99.90
18998;DHT22;9632;51.018;4.284;2023-04-15T06:06:49;11.70;99.90
18998;DHT22;9632;51.018;4.284;2023-04-15T06:09:15;11.70;99.90
18998;DHT22;9632;51.018;4.284;2023-04-15T06:11:41;11.70;99.90
18998;DHT22;9632;51.018;4.284;2023-04-15T06:14:07;11.70;99.90
18998;DHT22;9632;51.018;4.284;2023-04-15T06:16:32;11.90;99.90
18998;DHT22;9632;51.018;4.284;2023-04-15T06:18:58;11.90;99.90
18998;DHT22;9632;51.018;4.284;2023-04-15T06:21:24;11.90;99.90
18998;DHT22;9632;51.018;4.284;2023-04-15T06:23:49;11.90;99.90
18998;DHT22;9632;51.018;4.284;2023-04-15T06:26:15;11.90;99.90
18998;DHT22;9632;51.018;4.284;2023-04-15T06:28:41;12.00;99.90
18998;DHT22;9632;51.018;4.284;2023-04-15T06:31:06;12.00;99.90
18998;DHT22;9632;51.018;4.284;2023-04-15T06:33:32;12.10;99.90
18998;DHT22;9632;51.018;4.284;2023-04-15T06:35:58;12.20;99.90
18998;DHT22;9632;51.018;4.284;2023-04-15T06:38:23;12.20;99.90
18998;DHT22;9632;51.018;4.284;2023-04-15T06:40:49;12.20;99.90
18998;DHT22;9632;51.018;4.284;2023-04-15T06:43:15;12.30;99.90
18998;DHT22;9632;51.018;4.284;2023-04-15T06:45:40;12.30;99.90
18998;DHT22;9632;51.018;4.284;2023-04-15T06:48:06;12.40;99.90
18998;DHT22;9632;51.018;4.284;2023-04-15T06:50:32;12.40;99.90
18998;DHT22;9632;51.018;4.284;2023-04-15T06:52:58;12.50;99.90
18998;DHT22;9632;51.018;4.284;2023-04-15T06:55:23;12.60;99.90
18998;DHT22;9632;51.018;4.284;2023-04-15T06:57:49;12.60;99.90
18998;DHT22;9632;51.018;4.284;2023-04-15T07:00:15;12.70;99.90
18998;DHT22;9632;51.018;4.284;2023-04-15T07:02:41;12.80;99.90
18998;DHT22;9632;51.018;4.284;2023-04-15T07:05:06;12.80;99.90
18998;DHT22;9632;51.018;4.284;2023-04-15T07:07:32;12.90;99.90
18998;DHT22;9632;51.018;4.284;2023-04-15T07:09:58;12.90;99.90
18998;DHT22;9632;51.018;4.284;2023-04-15T07:12:24;12.90;99.90
18998;DHT22;9632;51.018;4.284;2023-04-15T07:14:50;12.90;99.90
18998;DHT22;9632;51.018;4.284;2023-04-15T07:17:15;12.90;99.90
18998;DHT22;9632;51.018;4.284;2023-04-15T07:19:42;13.00;99.90
18998;DHT22;9632;51.018;4.284;2023-04-15T07:22:07;13.10;99.90
18998;DHT22;9632;51.018;4.284;2023-04-15T07:24:33;13.10;99.90
18998;DHT22;9632;51.018;4.284;2023-04-15T07:26:59;13.20;99.90
18998;DHT22;9632;51.018;4.284;2023-04-15T07:29:25;13.10;99.90
18998;DHT22;9632;51.018;4.284;2023-04-15T07:31:51;13.10;99.90
18998;DHT22;9632;51.018;4.284;2023-04-15T07:34:18;13.10;99.90
18998;DHT22;9632;51.018;4.284;2023-04-15T07:36:44;13.20;99.90
18998;DHT22;9632;51.018;4.284;2023-04-15T07:39:10;13.30;99.90
18998;DHT22;9632;51.018;4.284;2023-04-15T07:41:36;13.40;99.90
18998;DHT22;9632;51.018;4.284;2023-04-15T07:44:02;13.60;99.90
18998;DHT22;9632;51.018;4.284;2023-04-15T07:46:28;13.70;99.90
18998;DHT22;9632;51.018;4.284;2023-04-15T07:48:54;13.80;99.90
18998;DHT22;9632;51.018;4.284;2023-04-15T07:51:20;13.90;99.90
18998;DHT22;9632;51.018;4.284;2023-04-15T07:53:46;13.90;99.90
18998;DHT22;9632;51.018;4.284;2023-04-15T07:56:13;13.90;99.90
18998;DHT22;9632;51.018;4.284;2023-04-15T07:58:38;14.00;99.90
18998;DHT22;9632;51.018;4.284;2023-04-15T08:01:04;14.20;99.90
18998;DHT22;9632;51.018;4.284;2023-04-15T08:03:30;14.30;99.90
18998;DHT22;9632;51.018;4.284;2023-04-15T08:05:56;14.60;99.90
18998;DHT22;9632;51.018;4.284;2023-04-15T08:08:22;14.70;99.90
18998;DHT22;9632;51.018;4.284;2023-04-15T08:10:48;14.90;99.90
18998;DHT22;9632;51.018;4.284;2023-04-15T08:13:14;15.10;99.90
18998;DHT22;9632;51.018;4.284;2023-04-15T08:15:40;15.30;99.90
18998;DHT22;9632;51.018;4.284;2023-04-15T08:18:06;15.40;99.90
18998;DHT22;9632;51.018;4.284;2023-04-15T08:20:32;15.40;99.90
18998;DHT22;9632;51.018;4.284;2023-04-15T08:22:58;15.50;99.90
18998;DHT22;9632;51.018;4.284;2023-04-15T08:25:23;15.60;99.90
18998;DHT22;9632;51.018;4.284;2023-04-15T08:27:49;15.60;99.90
18998;DHT22;9632;51.018;4.284;2023-04-15T08:30:15;15.70;99.90
18998;DHT22;9632;51.018;4.284;2023-04-15T08:32:42;15.80;99.90
18998;DHT22;9632;51.018;4.284;2023-04-15T08:35:10;15.80;99.90
18998;DHT22;9632;51.018;4.284;2023-04-15T08:37:36;15.80;99.90
18998;DHT22;9632;51.018;4.284;2023-04-15T08:40:02;15.80;99.90
18998;DHT22;9632;51.018;4.284;2023-04-15T08:42:30;15.80;99.90
18998;DHT22;9632;51.018;4.284;2023-04-15T08:44:59;15.90;99.90
18998;DHT22;9632;51.018;4.284;2023-04-15T08:47:29;15.80;99.90
18998;DHT22;9632;51.018;4.284;2023-04-15T08:49:57;15.80;99.90
18998;DHT22;9632;51.018;4.284;2023-04-15T08:52:25;15.80;99.90
18998;DHT22;9632;51.018;4.284;2023-04-15T08:54:54;15.80;99.90
18998;DHT22;9632;51.018;4.284;2023-04-15T08:57:26;15.90;99.90
18998;DHT22;9632;51.018;4.284;2023-04-15T08:59:55;15.90;99.90
18998;DHT22;9632;51.018;4.284;2023-04-15T09:02:22;15.90;99.90
18998;DHT22;9632;51.018;4.284;2023-04-15T09:04:48;16.00;99.90
18998;DHT22;9632;51.018;4.284;2023-04-15T09:07:14;16.00;99.90
18998;DHT22;9632;51.018;4.284;2023-04-15T09:09:40;16.10;99.90
18998;DHT22;9632;51.018;4.284;2023-04-15T09:12:07;16.20;99.90
18998;DHT22;9632;51.018;4.284;2023-04-15T09:14:33;16.20;99.90
18998;DHT22;9632;51.018;4.284;2023-04-15T09:17:03;16.20;99.90
18998;DHT22;9632;51.018;4.284;2023-04-15T09:19:29;16.20;99.90
18998;DHT22;9632;51.018;4.284;2023-04-15T09:21:57;16.40;99.90
18998;DHT22;9632;51.018;4.284;2023-04-15T09:24:24;16.40;99.90
18998;DHT22;9632;51.018;4.284;2023-04-15T09:26:53;16.60;99.90
18998;DHT22;9632;51.018;4.284;2023-04-15T09:29:25;16.60;99.90
18998;DHT22;9632;51.018;4.284;2023-04-15T09:31:51;16.50;99.90
18998;DHT22;9632;51.018;4.284;2023-04-15T09:34:17;16.50;99.90
18998;DHT22;9632;51.018;4.284;2023-04-15T09:39:12;16.70;99.90
18998;DHT22;9632;51.018;4.284;2023-04-15T09:41:38;16.60;99.90
18998;DHT22;9632;51.018;4.284;2023-04-15T09:44:05;16.80;99.90
18998;DHT22;9632;51.018;4.284;2023-04-15T09:46:44;16.70;99.90
18998;DHT22;9632;51.018;4.284;2023-04-15T09:49:11;16.70;99.90
18998;DHT22;9632;51.018;4.284;2023-04-15T09:51:37;16.80;99.90
18998;DHT22;9632;51.018;4.284;2023-04-15T09:54:03;16.80;99.90
18998;DHT22;9632;51.018;4.284;2023-04-15T09:56:37;16.80;99.90
18998;DHT22;9632;51.018;4.284;2023-04-15T09:59:09;16.70;99.90
18998;DHT22;9632;51.018;4.284;2023-04-15T10:01:36;16.80;99.90
18998;DHT22;9632;51.018;4.284;2023-04-15T10:04:03;16.90;99.90
18998;DHT22;9632;51.018;4.284;2023-04-15T10:06:29;16.90;99.90
18998;DHT22;9632;51.018;4.284;2023-04-15T10:08:59;16.90;99.90
18998;DHT22;9632;51.018;4.284;2023-04-15T10:11:28;17.00;99.90
18998;DHT22;9632;51.018;4.284;2023-04-15T10:13:55;17.00;99.90
18998;DHT22;9632;51.018;4.284;2023-04-15T10:16:22;17.10;99.90
18998;DHT22;9632;51.018;4.284;2023-04-15T10:18:54;17.10;99.90
18998;DHT22;9632;51.018;4.284;2023-04-15T10:21:21;17.10;99.90
18998;DHT22;9632;51.018;4.284;2023-04-15T10:23:48;17.10;99.90
18998;DHT22;9632;51.018;4.284;2023-04-15T10:26:14;17.10;99.90
18998;DHT22;9632;51.018;4.284;2023-04-15T10:28:42;17.00;99.90
18998;DHT22;9632;51.018;4.284;2023-04-15T10:31:11;17.00;99.90
18998;DHT22;9632;51.018;4.284;2023-04-15T10:33:37;17.20;99.90
18998;DHT22;9632;51.018;4.284;2023-04-15T10:36:04;17.10;99.90
18998;DHT22;9632;51.018;4.284;2023-04-15T10:38:34;17.10;99.90
18998;DHT22;9632;51.018;4.284;2023-04-15T10:41:23;17.00;99.90
18998;DHT22;9632;51.018;4.284;2023-04-15T10:43:56;16.90;99.90
18998;DHT22;9632;51.018;4.284;2023-04-15T10:46:42;17.00;99.90
18998;DHT22;9632;51.018;4.284;2023-04-15T10:49:14;17.10;99.90
18998;DHT22;9632;51.018;4.284;2023-04-15T10:51:45;17.30;99.90
18998;DHT22;9632;51.018;4.284;2023-04-15T10:59:38;17.60;99.90
18998;DHT22;9632;51.018;4.284;2023-04-15T11:05:51;17.50;98.00
18998;DHT22;9632;51.018;4.284;2023-04-15T11:08:18;17.40;97.40
18998;DHT22;9632;51.018;4.284;2023-04-15T11:13:16;17.50;98.60
18998;DHT22;9632;51.018;4.284;2023-04-15T11:15:46;17.50;98.30
18998;DHT22;9632;51.018;4.284;2023-04-15T11:18:15;17.50;97.70
18998;DHT22;9632;51.018;4.284;2023-04-15T11:20:42;17.50;97.20
18998;DHT22;9632;51.018;4.284;2023-04-15T11:23:09;17.50;98.10
18998;DHT22;9632;51.018;4.284;2023-04-15T11:25:35;17.70;99.10
18998;DHT22;9632;51.018;4.284;2023-04-15T11:28:04;17.80;99.10
18998;DHT22;9632;51.018;4.284;2023-04-15T11:30:35;17.90;98.30
18998;DHT22;9632;51.018;4.284;2023-04-15T11:33:06;18.00;98.20
18998;DHT22;9632;51.018;4.284;2023-04-15T11:35:36;18.00;96.40
18998;DHT22;9632;51.018;4.284;2023-04-15T11:38:08;18.00;90.20
18998;DHT22;9632;51.018;4.284;2023-04-15T11:40:35;17.90;88.50
18998;DHT22;9632;51.018;4.284;2023-04-15T11:43:08;17.90;88.70
18998;DHT22;9632;51.018;4.284;2023-04-15T11:45:57;17.90;90.70
18998;DHT22;9632;51.018;4.284;2023-04-15T11:48:23;17.90;84.70
18998;DHT22;9632;51.018;4.284;2023-04-15T11:50:58;17.80;89.40
18998;DHT22;9632;51.018;4.284;2023-04-15T11:53:44;17.80;89.80
18998;DHT22;9632;51.018;4.284;2023-04-15T11:56:17;17.90;90.60
18998;DHT22;9632;51.018;4.284;2023-04-15T11:58:43;17.90;89.50
18998;DHT22;9632;51.018;4.284;2023-04-15T12:01:10;17.90;90.30
18998;DHT22;9632;51.018;4.284;2023-04-15T12:06:15;17.90;92.60
18998;DHT22;9632;51.018;4.284;2023-04-15T12:11:27;18.10;93.40
18998;DHT22;9632;51.018;4.284;2023-04-15T12:14:15;18.10;92.90
18998;DHT22;9632;51.018;4.284;2023-04-15T12:16:43;18.20;93.90
18998;DHT22;9632;51.018;4.284;2023-04-15T12:19:11;18.10;91.50
18998;DHT22;9632;51.018;4.284;2023-04-15T12:21:39;18.10;93.60
18998;DHT22;9632;51.018;4.284;2023-04-15T12:24:07;18.10;91.50
18998;DHT22;9632;51.018;4.284;2023-04-15T12:26:48;18.10;91.70
18998;DHT22;9632;51.018;4.284;2023-04-15T12:29:15;18.10;92.80
18998;DHT22;9632;51.018;4.284;2023-04-15T12:31:54;18.20;92.00
18998;DHT22;9632;51.018;4.284;2023-04-15T12:34:30;18.20;93.60
18998;DHT22;9632;51.018;4.284;2023-04-15T12:36:56;18.20;92.70
18998;DHT22;9632;51.018;4.284;2023-04-15T12:39:27;18.10;93.60
18998;DHT22;9632;51.018;4.284;2023-04-15T12:41:53;18.10;95.10
18998;DHT22;9632;51.018;4.284;2023-04-15T12:44:21;18.10;94.70
18998;DHT22;9632;51.018;4.284;2023-04-15T12:46:47;18.10;92.70
18998;DHT22;9632;51.018;4.284;2023-04-15T12:49:12;18.20;93.30
18998;DHT22;9632;51.018;4.284;2023-04-15T12:51:44;18.10;92.70
18998;DHT22;9632;51.018;4.284;2023-04-15T12:54:10;18.10;93.70
18998;DHT22;9632;51.018;4.284;2023-04-15T12:56:35;18.10;92.30
18998;DHT22;9632;51.018;4.284;2023-04-15T12:59:01;18.00;93.20
18998;DHT22;9632;51.018;4.284;2023-04-15T13:01:27;17.90;94.00
18998;DHT22;9632;51.018;4.284;2023-04-15T13:03:52;17.90;92.80
18998;DHT22;9632;51.018;4.284;2023-04-15T13:06:18;17.90;92.60
18998;DHT22;9632;51.018;4.284;2023-04-15T13:08:44;17.90;93.40
18998;DHT22;9632;51.018;4.284;2023-04-15T13:11:10;17.90;94.20
18998;DHT22;9632;51.018;4.284;2023-04-15T13:13:35;17.90;94.70
18998;DHT22;9632;51.018;4.284;2023-04-15T13:16:01;17.90;94.20
18998;DHT22;9632;51.018;4.284;2023-04-15T13:18:27;17.90;96.60
18998;DHT22;9632;51.018;4.284;2023-04-15T13:20:53;17.80;94.90
18998;DHT22;9632;51.018;4.284;2023-04-15T13:23:20;17.90;95.90
18998;DHT22;9632;51.018;4.284;2023-04-15T13:25:46;17.90;94.80
18998;DHT22;9632;51.018;4.284;2023-04-15T13:28:11;17.80;94.20
18998;DHT22;9632;51.018;4.284;2023-04-15T13:30:38;17.80;94.70
18998;DHT22;9632;51.018;4.284;2023-04-15T13:33:04;17.70;95.90
18998;DHT22;9632;51.018;4.284;2023-04-15T13:35:31;17.70;96.80
18998;DHT22;9632;51.018;4.284;2023-04-15T13:37:57;17.70;95.30
18998;DHT22;9632;51.018;4.284;2023-04-15T13:40:23;17.70;96.50
18998;DHT22;9632;51.018;4.284;2023-04-15T13:42:49;17.70;96.70
18998;DHT22;9632;51.018;4.284;2023-04-15T13:45:16;17.60;95.10
18998;DHT22;9632;51.018;4.284;2023-04-15T13:47:41;17.60;96.30
18998;DHT22;9632;51.018;4.284;2023-04-15T13:50:07;17.60;96.80
18998;DHT22;9632;51.018;4.284;2023-04-15T13:52:33;17.50;96.30
18998;DHT22;9632;51.018;4.284;2023-04-15T13:54:59;17.50;96.60
18998;DHT22;9632;51.018;4.284;2023-04-15T13:57:25;17.50;97.60
18998;DHT22;9632;51.018;4.284;2023-04-15T13:59:50;17.50;96.80
18998;DHT22;9632;51.018;4.284;2023-04-15T14:02:16;17.60;97.00
18998;DHT22;9632;51.018;4.284;2023-04-15T14:04:42;17.70;95.90
18998;DHT22;9632;51.018;4.284;2023-04-15T14:07:08;17.60;96.20
18998;DHT22;9632;51.018;4.284;2023-04-15T14:09:34;17.60;97.40
18998;DHT22;9632;51.018;4.284;2023-04-15T14:12:00;17.50;96.40
18998;DHT22;9632;51.018;4.284;2023-04-15T14:14:26;17.50;97.80
18998;DHT22;9632;51.018;4.284;2023-04-15T14:16:53;17.50;98.40
18998;DHT22;9632;51.018;4.284;2023-04-15T14:19:19;17.40;97.60
18998;DHT22;9632;51.018;4.284;2023-04-15T14:21:44;17.30;98.60
18998;DHT22;9632;51.018;4.284;2023-04-15T14:24:10;17.30;98.20
18998;DHT22;9632;51.018;4.284;2023-04-15T14:26:36;17.30;99.40
18998;DHT22;9632;51.018;4.284;2023-04-15T14:29:02;17.30;99.70
18998;DHT22;9632;51.018;4.284;2023-04-15T14:31:27;17.40;99.90
18998;DHT22;9632;51.018;4.284;2023-04-15T14:33:53;17.40;99.90
18998;DHT22;9632;51.018;4.284;2023-04-15T14:36:19;17.40;98.40
18998;DHT22;9632;51.018;4.284;2023-04-15T14:38:44;17.30;98.50
18998;DHT22;9632;51.018;4.284;2023-04-15T14:41:10;17.20;98.70
18998;DHT22;9632;51.018;4.284;2023-04-15T14:43:36;17.20;99.90
18998;DHT22;9632;51.018;4.284;2023-04-15T14:46:02;17.30;99.90
18998;DHT22;9632;51.018;4.284;2023-04-15T14:48:30;17.20;99.90
18998;DHT22;9632;51.018;4.284;2023-04-15T14:50:56;17.30;99.90
18998;DHT22;9632;51.018;4.284;2023-04-15T14:53:21;17.30;99.90
18998;DHT22;9632;51.018;4.284;2023-04-15T14:55:47;17.30;99.90
18998;DHT22;9632;51.018;4.284;2023-04-15T14:58:13;17.30;99.90
18998;DHT22;9632;51.018;4.284;2023-04-15T15:00:38;17.30;99.90
18998;DHT22;9632;51.018;4.284;2023-04-15T15:03:08;17.40;99.90
18998;DHT22;9632;51.018;4.284;2023-04-15T15:05:44;17.30;99.90
18998;DHT22;9632;51.018;4.284;2023-04-15T15:08:11;17.30;99.90
18998;DHT22;9632;51.018;4.284;2023-04-15T15:10:39;17.30;99.90
18998;DHT22;9632;51.018;4.284;2023-04-15T15:13:08;17.30;99.90
18998;DHT22;9632;51.018;4.284;2023-04-15T15:15:36;17.40;99.90
18998;DHT22;9632;51.018;4.284;2023-04-15T15:18:06;17.50;99.90
18998;DHT22;9632;51.018;4.284;2023-04-15T15:20:32;17.50;99.90
18998;DHT22;9632;51.018;4.284;2023-04-15T15:22:59;17.50;99.90
18998;DHT22;9632;51.018;4.284;2023-04-15T15:25:25;17.40;99.90
18998;DHT22;9632;51.018;4.284;2023-04-15T15:27:51;17.40;99.90
18998;DHT22;9632;51.018;4.284;2023-04-15T15:30:16;17.30;99.90
18998;DHT22;9632;51.018;4.284;2023-04-15T15:32:42;17.30;99.90
18998;DHT22;9632;51.018;4.284;2023-04-15T15:35:08;17.30;99.90
18998;DHT22;9632;51.018;4.284;2023-04-15T15:37:35;17.20;99.90
18998;DHT22;9632;51.018;4.284;2023-04-15T15:40:03;17.20;99.90
18998;DHT22;9632;51.018;4.284;2023-04-15T15:42:33;17.10;99.90
18998;DHT22;9632;51.018;4.284;2023-04-15T15:44:59;17.10;99.90
18998;DHT22;9632;51.018;4.284;2023-04-15T15:47:25;17.10;99.90
18998;DHT22;9632;51.018;4.284;2023-04-15T15:49:51;17.00;99.90
18998;DHT22;9632;51.018;4.284;2023-04-15T15:52:17;16.90;99.90
18998;DHT22;9632;51.018;4.284;2023-04-15T15:54:43;16.90;99.90
18998;DHT22;9632;51.018;4.284;2023-04-15T15:57:09;16.80;99.90
18998;DHT22;9632;51.018;4.284;2023-04-15T15:59:35;16.80;99.90
18998;DHT22;9632;51.018;4.284;2023-04-15T16:02:07;16.90;99.90